createdAt,value
2019-04-21T00:01:24.394Z,102469.83
2019-04-21T00:04:09.495Z,102475.89
2019-04-21T00:07:01.209Z,102477.31
2019-04-21T00:09:32.585Z,102473.38
2019-04-21T00:12:02.434Z,102473.38
2019-04-21T00:14:30.252Z,102468.48
2019-04-21T00:17:03.101Z,102468.48
2019-04-21T00:19:34.940Z,102458.57
2019-04-21T00:22:19.482Z,102461.28
2019-04-21T00:24:58.372Z,102465.14
2019-04-21T00:27:36.887Z,102465.14
2019-04-21T00:30:15.764Z,102457.63
2019-04-21T00:32:39.300Z,102461.37
2019-04-21T00:35:11.789Z,102461.31
2019-04-21T00:38:00.862Z,102455.09
2019-04-21T00:40:41.443Z,102463.41
2019-04-21T00:43:08.958Z,102450.95
2019-04-21T00:45:39.314Z,102433.55
2019-04-21T00:48:25.763Z,102433.55
2019-04-21T00:51:19.838Z,102448.08
2019-04-21T00:53:43.852Z,102444.64
2019-04-21T00:56:18.170Z,102444.64
2019-04-21T00:58:48.714Z,102414.32
2019-04-21T01:01:21.977Z,102426.48
2019-04-21T01:03:57.800Z,102417.33
2019-04-21T01:06:35.190Z,102417.94
2019-04-21T01:09:07.950Z,102398.80
2019-04-21T01:11:44.614Z,102415.82
2019-04-21T01:14:31.089Z,102415.82
2019-04-21T01:17:00.701Z,102413.98
2019-04-21T01:19:26.992Z,102416.80
2019-04-21T01:21:44.188Z,102416.48
2019-04-21T01:24:24.533Z,102416.48
2019-04-21T01:27:04.727Z,102411.20
2019-04-21T01:29:58.453Z,102411.34
2019-04-21T01:32:25.346Z,102402.55
2019-04-21T01:35:02.373Z,102402.55
2019-04-21T01:37:44.070Z,102398.25
2019-04-21T01:40:19.104Z,102394.52
2019-04-21T01:42:55.664Z,102394.52
2019-04-21T01:45:31.894Z,102382.02
2019-04-21T01:48:05.818Z,102398.98
2019-04-21T01:50:43.889Z,102395.45
2019-04-21T01:53:24.178Z,102394.48
2019-04-21T01:55:54.527Z,102394.48
2019-04-21T01:58:22.982Z,102395.23
2019-04-21T02:01:01.050Z,102386.37
2019-04-21T02:03:52.570Z,102381.93
2019-04-21T02:06:22.799Z,102381.93
2019-04-21T02:08:52.555Z,102383.84
2019-04-21T02:11:31.314Z,102383.84
2019-04-21T02:14:29.860Z,102380.32
2019-04-21T02:16:40.709Z,102380.32
2019-04-21T02:19:13.869Z,102377.70
2019-04-21T02:21:43.281Z,102377.17
2019-04-21T02:24:35.186Z,102377.17
2019-04-21T02:27:07.094Z,102367.50
2019-04-21T02:29:41.287Z,102369.58
2019-04-21T02:35:08.400Z,102350.44
2019-04-21T02:37:40.326Z,102368.23
2019-04-21T02:42:46.340Z,102359.84
2019-04-21T02:45:28.431Z,102358.75
2019-04-21T02:50:33.578Z,102353.38
2019-04-21T02:53:09.515Z,102353.44
2019-04-21T02:55:44.665Z,102343.64
2019-04-21T03:00:55.505Z,102339.52
2019-04-21T03:08:49.679Z,102325.38
2019-04-21T03:13:59.360Z,102331.13
2019-04-21T03:16:25.750Z,102324.18
2019-04-21T03:21:42.202Z,102311.11
2019-04-21T03:24:29.711Z,102311.11
2019-04-21T03:29:29.518Z,102302.92
2019-04-21T03:35:25.906Z,102299.64
2019-04-21T03:37:16.743Z,102299.99
2019-04-21T03:42:30.770Z,102295.45
2019-04-21T03:44:59.979Z,102293.58
2019-04-21T03:47:32.487Z,102293.58
2019-04-21T03:50:11.414Z,102298.25
2019-04-21T03:52:50.432Z,102296.28
2019-04-21T04:00:58.278Z,102295.38
2019-04-21T04:03:33.024Z,102297.35
2019-04-21T04:16:26.104Z,102279.20
2019-04-21T04:29:18.306Z,102277.13
2019-04-21T04:31:42.769Z,102276.72
2019-04-21T04:34:27.547Z,102276.71
2019-04-21T04:37:07.442Z,102272.52
2019-04-21T04:42:31.532Z,102268.22
2019-04-21T04:47:34.984Z,102271.72
2019-04-21T04:49:53.379Z,102278.76
2019-04-21T04:55:17.160Z,102267.21
2019-04-21T04:57:55.342Z,102267.21
2019-04-21T05:00:25.864Z,102263.20
2019-04-21T05:05:30.097Z,102255.04
2019-04-21T05:11:01.463Z,102248.90
2019-04-21T05:13:21.379Z,102248.90
2019-04-21T05:15:51.273Z,102251.63
2019-04-21T05:18:35.060Z,102259.73
2019-04-21T05:21:12.459Z,102256.38
2019-04-21T05:23:31.360Z,102255.72
2019-04-21T05:25:58.422Z,102247.73
2019-04-21T05:28:32.688Z,102256.64
2019-04-21T05:31:18.250Z,102254.78
2019-04-21T05:33:57.729Z,102254.78
2019-04-21T05:36:30.874Z,102257.78
2019-04-21T05:39:01.167Z,102250.24
2019-04-21T05:41:29.085Z,102252.39
2019-04-21T05:44:13.314Z,102253.69
2019-04-21T05:46:59.418Z,102253.69
2019-04-21T05:49:23.154Z,102251.96
2019-04-21T05:51:55.701Z,102248.03
2019-04-21T05:57:10.180Z,102250.87
2019-04-21T05:59:49.078Z,102223.83
2019-04-21T06:02:24.201Z,102248.23
2019-04-21T06:07:34.832Z,102245.81
2019-04-21T06:10:08.604Z,102241.84
2019-04-21T06:12:49.777Z,102244.56
2019-04-21T06:15:21.349Z,102244.56
2019-04-21T06:18:02.780Z,102237.06
2019-04-21T06:20:38.514Z,102237.06
2019-04-21T06:23:03.077Z,102231.88
2019-04-21T06:25:54.564Z,102234.70
2019-04-21T06:28:20.689Z,102234.70
2019-04-21T06:31:05.946Z,102230.03
2019-04-21T06:33:46.005Z,102233.20
2019-04-21T06:38:58.295Z,102229.85
2019-04-21T06:41:21.528Z,102237.25
2019-04-21T06:43:56.309Z,102237.25
2019-04-21T06:46:33.424Z,102225.04
2019-04-21T06:51:38.971Z,102230.63
2019-04-21T06:54:30.627Z,102224.33
2019-04-21T06:56:47.956Z,102226.91
2019-04-21T06:59:20.785Z,102226.91
2019-04-21T07:02:13.462Z,102224.69
2019-04-21T07:04:40.873Z,102224.69
2019-04-21T07:07:05.204Z,102221.86
2019-04-21T07:09:53.088Z,102216.86
2019-04-21T07:12:19.003Z,102216.86
2019-04-21T07:14:58.983Z,102219.05
2019-04-21T07:17:46.723Z,102219.05
2019-04-21T07:22:44.659Z,102215.48
2019-04-21T07:25:26.400Z,102211.50
2019-04-21T07:27:53.788Z,102211.50
2019-04-21T07:30:31.175Z,102211.69
2019-04-21T07:33:20.699Z,102211.69
2019-04-21T07:35:37.502Z,102205.28
2019-04-21T07:38:19.587Z,102205.16
2019-04-21T07:40:48.514Z,102208.23
2019-04-21T07:43:21.934Z,102207.66
2019-04-21T07:45:58.506Z,102199.64
2019-04-21T07:48:37.537Z,102201.58
2019-04-21T07:51:25.483Z,102194.87
2019-04-21T07:54:05.641Z,102195.64
2019-04-21T07:56:17.806Z,102192.00
2019-04-21T07:59:02.273Z,102192.00
2019-04-21T08:01:37.349Z,102188.88
2019-04-21T08:04:38.259Z,102188.88
2019-04-21T08:06:53.686Z,102186.09
2019-04-21T08:09:29.446Z,102185.42
2019-04-21T08:12:02.663Z,102185.42
2019-04-21T08:14:43.533Z,102173.34
2019-04-21T08:17:09.795Z,102174.42
2019-04-21T08:19:46.168Z,102174.64
2019-04-21T08:22:25.679Z,102169.08
2019-04-21T08:25:05.714Z,102161.70
2019-04-21T08:27:46.449Z,102161.70
2019-04-21T08:30:12.865Z,102166.20
2019-04-21T08:37:55.232Z,102149.00
2019-04-21T08:40:36.655Z,102149.00
2019-04-21T08:43:08.854Z,102143.81
2019-04-21T08:45:51.245Z,102142.89
2019-04-21T08:48:18.299Z,102142.89
2019-04-21T08:51:08.282Z,102138.17
2019-04-21T08:53:35.711Z,102138.20
2019-04-21T08:56:10.532Z,102134.78
2019-04-21T08:58:41.553Z,102136.36
2019-04-21T09:01:23.902Z,102131.40
2019-04-21T09:03:56.743Z,102127.16
2019-04-21T09:09:05.287Z,102121.89
2019-04-21T09:11:36.257Z,102122.26
2019-04-21T09:14:13.857Z,102114.00
2019-04-21T09:16:47.603Z,102114.38
2019-04-21T09:19:38.536Z,102114.38
2019-04-21T09:22:02.234Z,102108.37
2019-04-21T09:24:33.345Z,102108.37
2019-04-21T09:27:10.051Z,102109.56
2019-04-21T09:29:36.656Z,102107.66
2019-04-21T09:32:09.596Z,102100.70
2019-04-21T09:34:43.744Z,102094.44
2019-04-21T09:37:28.843Z,102094.44
2019-04-21T09:39:55.154Z,102082.50
2019-04-21T09:42:37.295Z,102082.50
2019-04-21T09:45:06.174Z,102074.89
2019-04-21T09:47:46.498Z,102069.98
2019-04-21T09:50:15.135Z,102068.95
2019-04-21T09:52:55.480Z,102066.84
2019-04-21T09:55:31.499Z,102070.69
2019-04-21T09:58:09.941Z,102064.59
2019-04-21T10:00:47.653Z,102050.11
2019-04-21T10:03:13.917Z,102050.11
2019-04-21T10:05:47.489Z,102050.05
2019-04-21T10:08:22.820Z,102050.05
2019-04-21T10:10:56.967Z,102039.61
2019-04-21T10:13:31.838Z,102039.61
2019-04-21T10:16:05.799Z,102031.11
2019-04-21T10:18:40.311Z,102026.09
2019-04-21T10:21:15.456Z,102028.81
2019-04-21T10:23:50.097Z,102028.81
2019-04-21T10:26:24.360Z,102015.05
2019-04-21T10:29:05.706Z,102013.11
2019-04-21T10:31:34.650Z,102013.11
2019-04-21T10:34:09.336Z,102009.55
2019-04-21T10:36:43.193Z,102002.81
2019-04-21T10:39:17.805Z,102002.81
2019-04-21T10:41:57.353Z,102000.20
2019-04-21T10:44:31.498Z,102000.20
2019-04-21T10:47:06.788Z,101996.10
2019-04-21T10:49:40.685Z,101982.80
2019-04-21T10:52:15.240Z,101983.95
2019-04-21T10:55:15.072Z,101978.84
2019-04-21T10:57:24.496Z,101972.21
2019-04-21T10:59:59.838Z,101972.21
2019-04-21T11:02:34.791Z,101973.58
2019-04-21T11:05:09.097Z,101973.58
2019-04-21T11:07:57.601Z,101966.01
2019-04-21T11:10:18.406Z,101969.72
2019-04-21T11:12:52.690Z,101969.72
2019-04-21T11:15:27.511Z,101962.54
2019-04-21T11:18:01.795Z,101962.54
2019-04-21T11:20:35.655Z,101953.30
2019-04-21T11:23:10.191Z,101940.55
2019-04-21T11:25:44.057Z,101940.55
2019-04-21T11:28:18.644Z,101936.42
2019-04-21T11:30:53.092Z,101934.16
2019-04-21T11:33:27.190Z,101934.16
2019-04-21T11:36:01.457Z,101931.23
2019-04-21T11:38:51.328Z,101928.33
2019-04-21T11:41:11.912Z,101928.33
2019-04-21T11:43:45.771Z,101921.13
2019-04-21T11:46:20.504Z,101921.13
2019-04-21T11:48:54.701Z,101920.09
2019-04-21T11:51:28.967Z,101914.63
2019-04-21T11:54:02.874Z,101914.63
2019-04-21T11:56:37.002Z,101909.16
2019-04-21T11:59:11.978Z,101911.75
2019-04-21T12:01:45.988Z,101902.72
2019-04-21T12:04:19.702Z,101901.11
2019-04-21T12:06:55.972Z,101893.77
2019-04-21T12:09:30.171Z,101895.65
2019-04-21T12:12:05.261Z,101892.73
2019-04-21T12:14:39.698Z,101886.25
2019-04-21T12:17:14.244Z,101886.25
2019-04-21T12:19:48.563Z,101881.08
2019-04-21T12:22:28.215Z,101881.84
2019-04-21T12:24:57.817Z,101871.80
2019-04-21T12:27:32.006Z,101871.19
2019-04-21T12:30:06.846Z,101871.19
2019-04-21T12:32:40.589Z,101865.95
2019-04-21T12:35:15.652Z,101861.78
2019-04-21T12:37:51.062Z,101861.78
2019-04-21T12:40:26.092Z,101847.94
2019-04-21T12:43:00.953Z,101856.16
2019-04-21T12:45:35.947Z,101847.39
2019-04-21T12:48:10.456Z,101844.82
2019-04-21T12:50:45.717Z,101841.13
2019-04-21T12:53:19.545Z,101838.96
2019-04-21T12:55:53.818Z,101833.02
2019-04-21T12:58:28.983Z,101833.02
2019-04-21T13:01:03.008Z,101829.58
2019-04-21T13:03:37.604Z,101823.17
2019-04-21T13:06:11.770Z,101823.17
2019-04-21T13:08:53.611Z,101811.78
2019-04-21T13:11:21.432Z,101814.78
2019-04-21T13:13:55.742Z,101810.70
2019-04-21T13:16:29.601Z,101800.77
2019-04-21T13:19:03.346Z,101800.77
2019-04-21T13:21:38.130Z,101803.27
2019-04-21T13:24:12.033Z,101797.92
2019-04-21T13:26:52.380Z,101793.88
2019-04-21T13:29:21.184Z,101793.88
2019-04-21T13:31:56.175Z,101786.34
2019-04-21T13:34:31.669Z,101786.34
2019-04-21T13:37:05.782Z,101775.19
2019-04-21T13:40:01.931Z,101761.92
2019-04-21T13:42:24.075Z,101761.92
2019-04-21T13:44:50.969Z,101759.80
2019-04-21T13:47:25.047Z,101750.87
2019-04-21T13:50:01.048Z,101751.64
2019-04-21T13:52:34.545Z,101738.73
2019-04-21T13:55:09.508Z,101741.49
2019-04-21T13:57:44.369Z,101740.73
2019-04-21T14:00:19.434Z,101735.13
2019-04-21T14:02:54.561Z,101735.13
2019-04-21T14:05:28.673Z,101735.92
2019-04-21T14:08:03.150Z,101729.58
2019-04-21T14:10:37.675Z,101719.11
2019-04-21T14:13:12.148Z,101717.53
2019-04-21T14:15:48.336Z,101714.04
2019-04-21T14:18:22.553Z,101708.78
2019-04-21T14:20:57.445Z,101708.94
2019-04-21T14:23:38.072Z,101707.58
2019-04-21T14:26:06.632Z,101707.58
2019-04-21T14:28:41.051Z,101704.84
2019-04-21T14:31:14.875Z,101695.73
2019-04-21T14:33:49.941Z,101698.17
2019-04-21T14:36:23.955Z,101689.24
2019-04-21T14:38:58.731Z,101678.50
2019-04-21T14:41:32.682Z,101678.50
2019-04-21T14:44:06.925Z,101681.75
2019-04-21T14:46:40.723Z,101671.05
2019-04-21T14:49:15.199Z,101671.05
2019-04-21T14:51:49.565Z,101665.14
2019-04-21T14:54:24.701Z,101665.14
2019-04-21T14:56:58.633Z,101660.00
2019-04-21T14:59:33.273Z,101657.37
2019-04-21T15:02:07.756Z,101655.98
2019-04-21T15:04:41.793Z,101655.02
2019-04-21T15:07:15.568Z,101649.86
2019-04-21T15:10:01.163Z,101649.07
2019-04-21T15:12:25.771Z,101649.89
2019-04-21T15:15:00.164Z,101636.23
2019-04-21T15:17:34.031Z,101636.23
2019-04-21T15:20:11.165Z,101625.98
2019-04-21T15:22:44.270Z,101625.98
2019-04-21T15:25:18.410Z,101627.50
2019-04-21T15:27:52.835Z,101625.08
2019-04-21T15:30:26.879Z,101629.47
2019-04-21T15:33:02.222Z,101627.96
2019-04-21T15:35:37.329Z,101618.97
2019-04-21T15:38:11.870Z,101618.97
2019-04-21T15:40:52.155Z,101619.03
2019-04-21T15:43:22.356Z,101616.02
2019-04-21T15:45:57.101Z,101600.36
2019-04-21T15:48:31.010Z,101593.55
2019-04-21T15:51:05.659Z,101597.44
2019-04-21T15:53:41.632Z,101597.44
2019-04-21T15:56:17.325Z,101597.80
2019-04-21T15:58:52.659Z,101591.87
2019-04-21T16:01:26.652Z,101591.91
2019-04-21T16:04:02.142Z,101589.83
2019-04-21T16:06:37.229Z,101586.90
2019-04-21T16:09:15.058Z,101581.96
2019-04-21T16:11:46.652Z,101581.96
2019-04-21T16:14:20.688Z,101579.37
2019-04-21T16:16:54.635Z,101576.77
2019-04-21T16:19:36.245Z,101572.30
2019-04-21T16:22:10.818Z,101567.50
2019-04-21T16:24:46.272Z,101567.50
2019-04-21T16:27:21.305Z,101565.52
2019-04-21T16:29:55.265Z,101565.05
2019-04-21T16:32:30.155Z,101562.98
2019-04-21T16:35:10.445Z,101552.63
2019-04-21T16:37:41.607Z,101553.92
2019-04-21T16:40:15.484Z,101548.81
2019-04-21T16:42:50.089Z,101548.81
2019-04-21T16:45:25.114Z,101541.05
2019-04-21T16:47:59.147Z,101540.44
2019-04-21T16:50:33.972Z,101538.37
2019-04-21T16:53:08.230Z,101533.55
2019-04-21T16:55:42.207Z,101533.55
2019-04-21T16:58:20.640Z,101525.52
2019-04-21T17:01:00.698Z,101532.28
2019-04-21T17:03:28.307Z,101527.67
2019-04-21T17:06:04.695Z,101534.80
2019-04-21T17:08:38.747Z,101519.53
2019-04-21T17:11:19.541Z,101519.53
2019-04-21T17:13:50.006Z,101525.98
2019-04-21T17:19:09.109Z,101516.50
2019-04-21T17:21:34.746Z,101517.22
2019-04-21T17:24:08.522Z,101517.22
2019-04-21T17:26:44.734Z,101514.95
2019-04-21T17:29:20.753Z,101516.50
2019-04-21T17:31:55.305Z,101516.50
2019-04-21T17:34:31.640Z,101517.65
2019-04-21T17:37:05.526Z,101505.65
2019-04-21T17:39:40.618Z,101501.95
2019-04-21T17:42:26.419Z,101501.95
2019-04-21T17:44:51.069Z,101507.38
2019-04-21T17:47:34.198Z,101503.33
2019-04-21T17:50:03.130Z,101499.72
2019-04-21T17:52:42.860Z,101499.72
2019-04-21T17:55:22.987Z,101504.94
2019-04-21T17:58:09.290Z,101504.94
2019-04-21T18:01:09.244Z,101505.20
2019-04-21T18:03:35.308Z,101506.53
2019-04-21T18:05:55.915Z,101504.72
2019-04-21T18:08:38.705Z,101504.72
2019-04-21T18:11:03.442Z,101506.79
2019-04-21T18:13:26.925Z,101506.79
2019-04-21T18:16:09.642Z,101511.58
2019-04-21T18:18:36.832Z,101501.34
2019-04-21T18:21:10.741Z,101491.55
2019-04-21T18:23:52.846Z,101499.80
2019-04-21T18:26:30.304Z,101499.80
2019-04-21T18:28:58.571Z,101497.44
2019-04-21T18:31:33.773Z,101496.30
2019-04-21T18:34:11.085Z,101503.34
2019-04-21T18:36:46.443Z,101503.83
2019-04-21T18:39:34.187Z,101506.14
2019-04-21T18:42:10.909Z,101506.14
2019-04-21T18:45:11.060Z,101503.36
2019-04-21T18:47:24.204Z,101506.12
2019-04-21T18:49:46.010Z,101501.56
2019-04-21T18:52:32.250Z,101504.44
2019-04-21T18:55:09.548Z,101504.44
2019-04-21T18:57:39.250Z,101505.27
2019-04-21T19:00:15.346Z,101510.80
2019-04-21T19:02:47.718Z,101510.59
2019-04-21T19:05:21.216Z,101510.36
2019-04-21T19:08:11.492Z,101510.36
2019-04-21T19:10:50.727Z,101511.55
2019-04-21T19:13:44.385Z,101511.55
2019-04-21T19:16:22.830Z,101517.61
2019-04-21T19:18:43.663Z,101523.39
2019-04-21T19:21:06.169Z,101518.45
2019-04-21T19:23:53.557Z,101518.37
2019-04-21T19:29:03.512Z,101522.38
2019-04-21T19:31:32.233Z,101516.34
2019-04-21T19:33:59.851Z,101511.83
2019-04-21T19:36:23.655Z,101511.83
2019-04-21T19:39:06.840Z,101517.08
2019-04-21T19:41:48.980Z,101516.33
2019-04-21T19:44:32.340Z,101508.05
2019-04-21T19:47:03.662Z,101505.13
2019-04-21T19:49:45.250Z,101499.34
2019-04-21T19:52:05.107Z,101491.89
2019-04-21T19:54:36.314Z,101494.81
2019-04-21T19:57:07.270Z,101492.70
2019-04-21T19:59:47.678Z,101492.70
2019-04-21T20:02:16.612Z,101497.59
2019-04-21T20:04:59.000Z,101491.92
2019-04-21T20:07:44.461Z,101491.92
2019-04-21T20:10:23.967Z,101482.75
2019-04-21T20:12:55.587Z,101482.75
2019-04-21T20:15:37.395Z,101486.98
2019-04-21T20:18:01.985Z,101486.23
2019-04-21T20:20:24.864Z,101486.18
2019-04-21T20:22:59.399Z,101479.89
2019-04-21T20:25:41.808Z,101474.00
2019-04-21T20:28:16.079Z,101471.05
2019-04-21T20:31:02.434Z,101471.78
2019-04-21T20:36:16.855Z,101464.73
2019-04-21T20:38:44.472Z,101464.73
2019-04-21T20:41:22.447Z,101470.78
2019-04-21T20:44:00.500Z,101470.78
2019-04-21T20:46:36.694Z,101468.27
2019-04-21T20:49:02.764Z,101470.37
2019-04-21T20:51:41.978Z,101464.81
2019-04-21T20:54:23.117Z,101463.40
2019-04-21T20:56:57.830Z,101463.40
2019-04-21T20:59:29.302Z,101460.76
2019-04-21T21:02:05.685Z,101457.76
2019-04-21T21:04:32.661Z,101458.67
2019-04-21T21:07:34.610Z,101458.67
2019-04-21T21:10:00.467Z,101453.03
2019-04-21T21:12:43.093Z,101453.03
2019-04-21T21:15:02.582Z,101452.84
2019-04-21T21:17:53.665Z,101450.78
2019-04-21T21:20:24.830Z,101450.78
2019-04-21T21:22:56.176Z,101452.63
2019-04-21T21:25:40.243Z,101452.63
2019-04-21T21:28:06.748Z,101446.73
2019-04-21T21:30:37.521Z,101443.54
2019-04-21T21:33:27.553Z,101436.48
2019-04-21T21:35:56.810Z,101436.48
2019-04-21T21:38:31.436Z,101439.20
2019-04-21T21:40:59.598Z,101442.73
2019-04-21T21:43:27.506Z,101440.41
2019-04-21T21:46:11.170Z,101438.81
2019-04-21T21:48:51.385Z,101438.81
2019-04-21T21:51:22.774Z,101440.03
2019-04-21T21:53:48.822Z,101437.55
2019-04-21T21:56:24.618Z,101442.20
2019-04-21T21:59:01.309Z,101440.03
2019-04-21T22:01:38.845Z,101443.78
2019-04-21T22:04:17.020Z,101442.97
2019-04-21T22:06:50.656Z,101438.38
2019-04-21T22:09:20.114Z,101435.02
2019-04-21T22:11:57.915Z,101441.00
2019-04-21T22:14:36.935Z,101433.14
2019-04-21T22:17:24.689Z,101433.14
2019-04-21T22:20:05.259Z,101432.60
2019-04-21T22:22:34.155Z,101425.48
2019-04-21T22:25:02.674Z,101427.20
2019-04-21T22:27:27.380Z,101427.20
2019-04-21T22:30:03.934Z,101433.81
2019-04-21T22:32:38.245Z,101428.50
2019-04-21T22:35:23.534Z,101430.59
2019-04-21T22:38:02.034Z,101430.59
2019-04-21T22:40:35.847Z,101424.36
2019-04-21T22:43:11.927Z,101422.11
2019-04-21T22:45:35.580Z,101424.07
2019-04-21T22:48:14.333Z,101424.07
2019-04-21T22:50:44.866Z,101422.27
2019-04-21T22:53:19.767Z,101424.49
2019-04-21T22:56:00.093Z,101435.62
2019-04-21T22:58:33.967Z,101435.62
2019-04-21T23:01:06.015Z,101428.13
2019-04-21T23:03:48.997Z,101428.13
2019-04-21T23:06:21.619Z,101427.05
2019-04-21T23:08:51.274Z,101430.39
2019-04-21T23:11:28.059Z,101422.73
2019-04-21T23:14:05.035Z,101427.66
2019-04-21T23:16:39.670Z,101433.72
2019-04-21T23:19:30.816Z,101429.72
2019-04-21T23:22:04.141Z,101434.17
2019-04-21T23:24:45.685Z,101431.55
2019-04-21T23:27:11.774Z,101431.55
2019-04-21T23:30:03.322Z,101429.19
2019-04-21T23:32:23.581Z,101421.48
2019-04-21T23:34:45.590Z,101421.48
2019-04-21T23:37:22.152Z,101420.81
2019-04-21T23:40:01.017Z,101422.08
2019-04-21T23:42:36.189Z,101423.22
2019-04-21T23:45:08.723Z,101426.63
2019-04-21T23:47:57.873Z,101426.63
2019-04-21T23:50:30.696Z,101425.66
2019-04-21T23:52:55.434Z,101421.50
2019-04-21T23:55:29.454Z,101423.68
2019-04-21T23:58:09.437Z,101423.68
